Tancred — LALX4 — position and weather

sailwx.info

Track history (hours):
 
Tides and Currents Weather Stations Pressure Air Temp Water Temp Dewpoint Dewpoint Depression Visibility Wind Speed Wind Dir Waves Ship Positions

Tancred

Last reported at 2015-Jun-19 18:33 UTC. Time now 2015-Jul-01 12:47 UTC.
Position N 48°14' W 125°27'.
Warning: this ship's position is 11 days out of date.

Length 190 m; draft 7.3 m.

Type: Cargo ship. MMSI: 258787000.

Date/timePositionNaut miles runAvg speedWind from/ knotsBaromVisibWave heightAir tempDewpointWater temp
2015-Jun-19 18:33N 48°14' W 125°27'1413.7
2015-Jun-19 17:33N 48°22' W 125°10'1313.0
2015-Jun-19 16:33N 48°31' W 124°56'1615.8
2015-Jun-19 15:33N 48°28' W 124°33'1515.4
2015-Jun-19 14:33N 48°22' W 124°11'1514.9
2015-Jun-19 13:34N 48°17' W 123°50'1313.3
2015-Jun-19 12:33N 48°16' W 123°30'10 9.8
2015-Jun-19 11:33N 48°23' W 123°20'1111.2
2015-Jun-19 10:34N 48°33' W 123°13'1212.0
2015-Jun-19 09:34N 48°44' W 123°08'10 9.7
2015-Jun-19 08:33N 48°54' W 123°09'1313.5
2015-Jun-19 07:33N 49°05' W 123°21'1211.8
2015-Jun-19 06:33N 49°08' W 123°04'6 6.0
2015-Jun-19 05:30N 49°11' W 122°55'0 0.0
2015-Jun-19 04:31N 49°11' W 122°55'0 0.0
2015-Jun-19 03:30N 49°11' W 122°55'0 0.0
2015-Jun-19 02:31N 49°11' W 122°55'0 0.0
2015-Jun-19 01:30N 49°11' W 122°55'0 0.0
2015-Jun-19 00:30N 49°11' W 122°55'0 0.0
2015-Jun-18 23:31N 49°11' W 122°55'0 0.0
2015-Jun-18 22:28N 49°11' W 122°55'0 0.0
2015-Jun-18 21:30N 49°11' W 122°55'0 0.0
2015-Jun-18 20:30N 49°11' W 122°55'0 0.0
2015-Jun-18 19:30N 49°11' W 122°55'0 0.0
2015-Jun-18 18:31N 49°11' W 122°55'0 0.0
2015-Jun-18 17:31N 49°11' W 122°55'0 0.0
2015-Jun-18 16:30N 49°11' W 122°55'0 0.0
2015-Jun-18 15:30N 49°11' W 122°55'0 0.0
2015-Jun-18 14:30N 49°11' W 122°55'0 0.0
2015-Jun-18 13:30N 49°11' W 122°55'0 0.0
2015-Jun-18 12:31N 49°11' W 122°55'0 0.0
2015-Jun-18 11:30N 49°11' W 122°55'0 0.0
2015-Jun-18 10:30N 49°11' W 122°55'0 0.0
2015-Jun-18 09:31N 49°11' W 122°55'0 0.0
2015-Jun-18 08:30N 49°11' W 122°55'0 0.0
2015-Jun-18 07:31N 49°11' W 122°55'0 0.0
2015-Jun-18 06:30N 49°11' W 122°55'0 0.0
2015-Jun-18 05:30N 49°11' W 122°55'0 0.0
2015-Jun-18 04:31N 49°11' W 122°55'0 0.0
2015-Jun-18 03:30N 49°11' W 122°55'0 0.0
2015-Jun-18 02:31N 49°11' W 122°55'3 3.0
2015-Jun-18 01:33N 49°09' W 122°59'1010.3
2015-Jun-18 00:33N 49°08' W 123°14'7 6.6
2015-Jun-17 23:34N 49°01' W 123°16'1515.4
2015-Jun-17 22:34N 48°50' W 123°00'1413.5
2015-Jun-17 21:34N 48°40' W 123°14'1413.7
2015-Jun-17 20:34N 48°26' W 123°10'1212.4
2015-Jun-17 19:34N 48°19' W 123°25'7 6.8
2015-Jun-17 18:33N 48°14' W 123°31'9 9.3
2015-Jun-17 17:33N 48°13' W 123°45'9 9.0
2015-Jun-17 16:34N 48°14' W 123°58'1111.3
2015-Jun-17 15:33N 48°19' W 124°14'1211.9
2015-Jun-17 14:34N 48°24' W 124°30'1212.0
2015-Jun-17 13:34N 48°29' W 124°47'1313.3
2015-Jun-17 12:33N 48°29' W 125°07'1514.4
2015-Jun-17 11:32N 48°24' W 125°28'11 5.3
2015-Jun-17 09:27N 48°20' W 125°44'2 1.9
2015-Jun-17 08:33N 48°22' W 125°44'2 2.0
2015-Jun-17 07:33N 48°24' W 125°44'2 2.2
2015-Jun-17 06:34N 48°26' W 125°43'3 2.5
2015-Jun-17 05:34N 48°29' W 125°42'2 2.5
2015-Jun-17 04:34N 48°31' W 125°42'2 2.2
2015-Jun-17 03:34N 48°33' W 125°42'2 2.1
2015-Jun-17 02:34N 48°35' W 125°42'2 2.1
2015-Jun-17 01:34N 48°38' W 125°42'2 2.0
2015-Jun-17 00:33N 48°39' W 125°43'2 1.5
2015-Jun-16 23:34N 48°40' W 125°45'1 1.4
2015-Jun-16 22:34N 48°40' W 125°47'3 3.3
2015-Jun-16 21:34N 48°38' W 125°43'1312.9
2015-Jun-16 20:34N 48°31' W 125°27'1313.2
2015-Jun-16 19:34N 48°22' W 125°13'8 8.5
2015-Jun-16 18:33N 48°16' W 125°03'1 1.3
2015-Jun-16 17:33N 48°17' W 125°05'1 1.1
2015-Jun-16 16:33N 48°17' W 125°06'1 1.0
2015-Jun-16 15:34N 48°17' W 125°08'1 1.0
2015-Jun-16 14:33N 48°17' W 125°09'1 1.1
2015-Jun-16 13:33N 48°17' W 125°11'1 1.1
2015-Jun-16 12:33N 48°18' W 125°13'1 1.2
2015-Jun-16 11:33N 48°18' W 125°15'1 1.3
2015-Jun-16 10:33N 48°19' W 125°16'1 1.4
2015-Jun-16 09:33N 48°19' W 125°18'2 1.6
2015-Jun-16 08:34N 48°20' W 125°20'2 1.8
2015-Jun-16 07:33N 48°21' W 125°23'2 1.9
2015-Jun-16 06:33N 48°22' W 125°25'2 1.9
2015-Jun-16 05:34N 48°23' W 125°27'2 2.1
2015-Jun-16 04:33N 48°25' W 125°29'2 2.1
2015-Jun-16 03:33N 48°27' W 125°31'2 2.5
2015-Jun-16 02:33N 48°29' W 125°33'3 2.6
2015-Jun-16 01:32N 48°31' W 125°35'2 2.5
2015-Jun-16 00:33N 48°33' W 125°37'3 2.5
2015-Jun-15 23:33N 48°35' W 125°39'2 2.4
2015-Jun-15 22:33N 48°37' W 125°40'8 7.9
2015-Jun-15 21:33N 48°35' W 125°29'1212.1
2015-Jun-15 20:34N 48°32' W 125°11'2 1.8
2015-Jun-15 19:32N 48°31' W 125°09'1 1.5
2015-Jun-15 18:33N 48°31' W 125°11'1 1.2
2015-Jun-15 17:34N 48°31' W 125°13'1 1.0
2015-Jun-15 16:33N 48°30' W 125°14'1 1.2
2015-Jun-15 15:33N 48°29' W 125°14'1 0.7
2015-Jun-15 14:33N 48°28' W 125°13'0 0.4
2015-Jun-15 13:34N 48°28' W 125°13'1 0.5
2015-Jun-15 12:33N 48°28' W 125°14'1 1.5
2015-Jun-15 11:33N 48°27' W 125°16'2 1.7
2015-Jun-15 10:33N 48°27' W 125°18'2 1.6
2015-Jun-15 09:34N 48°27' W 125°21'2 1.7
2015-Jun-15 08:33N 48°26' W 125°23'2 1.8
2015-Jun-15 07:33N 48°26' W 125°26'2 1.5
2015-Jun-15 06:33N 48°26' W 125°28'2 1.5
2015-Jun-15 05:32N 48°27' W 125°30'2 1.6
2015-Jun-15 04:33N 48°28' W 125°32'2 1.6
2015-Jun-15 03:34N 48°29' W 125°34'2 1.6
2015-Jun-15 02:33N 48°30' W 125°36'2 1.7
2015-Jun-15 01:34N 48°31' W 125°38'2 1.7
2015-Jun-15 00:33N 48°32' W 125°41'2 1.8
2015-Jun-14 23:34N 48°33' W 125°43'5 5.4
2015-Jun-14 22:33N 48°33' W 125°35'1312.6
2015-Jun-14 21:34N 48°32' W 125°16'1312.9
2015-Jun-14 20:34N 48°31' W 124°56'1313.3
2015-Jun-14 19:33N 48°29' W 124°36'1713.3
2015-Jun-14 18:17N 48°22' W 124°13'1114.5
2015-Jun-14 17:32N 48°18' W 123°58'1615.8
2015-Jun-14 16:34N 48°15' W 123°35'1211.9
2015-Jun-14 15:33N 48°09' W 123°20'1615.7
2015-Jun-14 14:33N 48°12' W 122°57'1615.8
2015-Jun-14 13:33N 48°03' W 122°38'1615.6
2015-Jun-14 12:33N 47°49' W 122°27'1414.5
2015-Jun-14 11:33N 47°35' W 122°26'1313.3
2015-Jun-14 10:33N 47°22' W 122°23'6 5.9
2015-Jun-14 09:33N 47°16' W 122°23'0 0.0
2015-Jun-13 06:29N 47°16' W 122°23'3 3.5
2015-Jun-13 05:33N 47°17' W 122°27'1110.9
2015-Jun-13 04:33N 47°28' W 122°25'1413.9
2015-Jun-13 03:33N 47°42' W 122°28'1413.6
2015-Jun-13 02:33N 47°55' W 122°30'1212.4
2015-Jun-13 01:33N 48°06' W 122°40'1211.6
2015-Jun-13 00:33N 48°11' W 122°55'1313.3
2015-Jun-12 23:33N 48°11' W 123°15'1111.3
2015-Jun-12 22:33N 48°13' W 123°32'1413.8
2015-Jun-12 21:33N 48°13' W 123°53'1514.1
2015-Jun-12 20:32N 48°19' W 124°13'3313.9
2015-Jun-12 18:10N 48°28' W 125°00'913.4
2015-Jun-12 17:28N 48°19' W 125°06'7111.3
2015-Jun-12 11:13N 47°09' W 125°03'811.8
2015-Jun-12 10:30N 47°01' W 124°57'1212.3
2015-Jun-12 09:33N 46°51' W 124°50'1212.4
2015-Jun-12 08:33N 46°40' W 124°42'1312.6
2015-Jun-12 07:33N 46°29' W 124°33'1312.7
2015-Jun-12 06:33N 46°19' W 124°20'1111.0
2015-Jun-12 05:33N 46°14' W 124°06'1110.8
2015-Jun-12 04:33N 46°12' W 123°51'9 9.3
2015-Jun-12 03:33N 46°16' W 123°39'10 9.7
2015-Jun-12 02:33N 46°13' W 123°25'8 8.4
2015-Jun-12 01:33N 46°10' W 123°14'1211.9
2015-Jun-12 00:33N 46°06' W 122°58'1110.7
2015-Jun-11 23:33N 45°58' W 122°49'1312.5
2015-Jun-11 22:33N 45°45' W 122°46'7 7.1
2015-Jun-11 21:33N 45°38' W 122°45'0 0.5
2015-Jun-11 20:28N 45°38' W 122°44'0 0.0
2015-Jun-11 19:26N 45°38' W 122°44'0 0.0
2015-Jun-11 18:20N 45°38' W 122°44'0 0.0
2015-Jun-11 17:23N 45°38' W 122°44'0 0.0
2015-Jun-11 16:28N 45°38' W 122°44'0 0.0
2015-Jun-11 15:29N 45°38' W 122°44'0 0.0
2015-Jun-11 14:32N 45°38' W 122°44'0 0.0
2015-Jun-11 13:32N 45°38' W 122°44'0 0.0
2015-Jun-11 12:26N 45°38' W 122°44'0 0.0
2015-Jun-11 11:32N 45°38' W 122°44'0 0.0
2015-Jun-11 10:32N 45°38' W 122°44'0 0.0
2015-Jun-11 09:20N 45°38' W 122°44'0 0.0
2015-Jun-11 08:32N 45°38' W 122°44'0 0.0
2015-Jun-11 07:26N 45°38' W 122°44'0 0.0
2015-Jun-11 06:32N 45°38' W 122°44'0 0.0
2015-Jun-11 05:32N 45°38' W 122°44'0 0.0
2015-Jun-11 04:32N 45°38' W 122°44'0 0.0
2015-Jun-11 03:26N 45°38' W 122°44'0 0.0
2015-Jun-11 02:17N 45°38' W 122°44'0 0.0
2015-Jun-11 01:23N 45°38' W 122°44'1 0.8
2015-Jun-11 00:33N 45°39' W 122°45'10 9.8
2015-Jun-10 23:33N 45°48' W 122°47'1010.6
2015-Jun-10 22:33N 45°59' W 122°50'9 9.2
2015-Jun-10 21:33N 46°06' W 122°57'1110.6
2015-Jun-10 20:33N 46°11' W 123°11'10 9.7
2015-Jun-10 19:33N 46°10' W 123°25'8 8.4
2015-Jun-10 18:33N 46°15' W 123°35'1110.8
2015-Jun-10 17:34N 46°12' W 123°49'9 9.4
2015-Jun-10 16:34N 46°15' W 124°02'1111.3
2015-Jun-10 15:33N 46°11' W 124°17'9 9.3
2015-Jun-10 14:33N 46°12' W 124°30'1413.9
2015-Jun-10 13:33N 46°13' W 124°50'1413.9
2015-Jun-10 12:33N 46°15' W 125°10'1313.4
2015-Jun-10 11:33N 46°16' W 125°29'1313.3
2015-Jun-10 10:33N 46°18' W 125°49'1413.2
2015-Jun-10 09:30N 46°19' W 126°09'1213.2
2015-Jun-10 08:33N 46°20' W 126°27'1412.9
2015-Jun-10 07:29N 46°22' W 126°46'1412.8
2015-Jun-10 06:26N 46°23' W 127°06'1212.9
2015-Jun-10 05:30N 46°24' W 127°23'1413.1
2015-Jun-10 04:25N 46°26' W 127°44'1113.1
2015-Jun-10 03:33N 46°27' W 127°60'1313.4
2015-Jun-10 02:33N 46°28' W 128°19'1313.2
2015-Jun-10 01:33N 46°30' W 128°38'1313.1
2015-Jun-10 00:33N 46°31' W 128°57'1312.8
2015-Jun-09 23:33N 46°34' W 129°15'10 9.4
2015-Jun-09 22:30N 46°38' W 129°29'1313.6
2015-Jun-09 21:32N 46°44' W 129°46'1413.4
2015-Jun-09 20:29N 46°50' W 130°04'1213.4
2015-Jun-09 19:33N 46°55' W 130°21'1313.5
2015-Jun-09 18:34N 47°01' W 130°39'  
Track history (hours):
 
Tides and Currents Weather Stations Pressure Air Temp Water Temp Dewpoint Dewpoint Depression Visibility Wind Speed Wind Dir Waves Ship Positions

Tancred

Last reported at 2015-Jun-19 18:33 UTC. Time now 2015-Jul-01 12:47 UTC.
Position N 48°14' W 125°27'.
Warning: this ship's position is 11 days out of date.

Length 190 m; draft 7.3 m.

Type: Cargo ship. MMSI: 258787000.

Date/timePositionNaut miles runAvg speedWind from/ knotsBaromVisibWave heightAir tempDewpointWater temp
2015-Jun-19 18:33N 48°14' W 125°27'1413.7
2015-Jun-19 17:33N 48°22' W 125°10'1313.0
2015-Jun-19 16:33N 48°31' W 124°56'1615.8
2015-Jun-19 15:33N 48°28' W 124°33'1515.4
2015-Jun-19 14:33N 48°22' W 124°11'1514.9
2015-Jun-19 13:34N 48°17' W 123°50'1313.3
2015-Jun-19 12:33N 48°16' W 123°30'10 9.8
2015-Jun-19 11:33N 48°23' W 123°20'1111.2
2015-Jun-19 10:34N 48°33' W 123°13'1212.0
2015-Jun-19 09:34N 48°44' W 123°08'10 9.7
2015-Jun-19 08:33N 48°54' W 123°09'1313.5
2015-Jun-19 07:33N 49°05' W 123°21'1211.8
2015-Jun-19 06:33N 49°08' W 123°04'6 6.0
2015-Jun-19 05:30N 49°11' W 122°55'0 0.0
2015-Jun-19 04:31N 49°11' W 122°55'0 0.0
2015-Jun-19 03:30N 49°11' W 122°55'0 0.0
2015-Jun-19 02:31N 49°11' W 122°55'0 0.0
2015-Jun-19 01:30N 49°11' W 122°55'0 0.0
2015-Jun-19 00:30N 49°11' W 122°55'0 0.0
2015-Jun-18 23:31N 49°11' W 122°55'0 0.0
2015-Jun-18 22:28N 49°11' W 122°55'0 0.0
2015-Jun-18 21:30N 49°11' W 122°55'0 0.0
2015-Jun-18 20:30N 49°11' W 122°55'0 0.0
2015-Jun-18 19:30N 49°11' W 122°55'0 0.0
2015-Jun-18 18:31N 49°11' W 122°55'0 0.0
2015-Jun-18 17:31N 49°11' W 122°55'0 0.0
2015-Jun-18 16:30N 49°11' W 122°55'0 0.0
2015-Jun-18 15:30N 49°11' W 122°55'0 0.0
2015-Jun-18 14:30N 49°11' W 122°55'0 0.0
2015-Jun-18 13:30N 49°11' W 122°55'0 0.0
2015-Jun-18 12:31N 49°11' W 122°55'0 0.0
2015-Jun-18 11:30N 49°11' W 122°55'0 0.0
2015-Jun-18 10:30N 49°11' W 122°55'0 0.0
2015-Jun-18 09:31N 49°11' W 122°55'0 0.0
2015-Jun-18 08:30N 49°11' W 122°55'0 0.0
2015-Jun-18 07:31N 49°11' W 122°55'0 0.0
2015-Jun-18 06:30N 49°11' W 122°55'0 0.0
2015-Jun-18 05:30N 49°11' W 122°55'0 0.0
2015-Jun-18 04:31N 49°11' W 122°55'0 0.0
2015-Jun-18 03:30N 49°11' W 122°55'0 0.0
2015-Jun-18 02:31N 49°11' W 122°55'3 3.0
2015-Jun-18 01:33N 49°09' W 122°59'1010.3
2015-Jun-18 00:33N 49°08' W 123°14'7 6.6
2015-Jun-17 23:34N 49°01' W 123°16'1515.4
2015-Jun-17 22:34N 48°50' W 123°00'1413.5
2015-Jun-17 21:34N 48°40' W 123°14'1413.7
2015-Jun-17 20:34N 48°26' W 123°10'1212.4
2015-Jun-17 19:34N 48°19' W 123°25'7 6.8
2015-Jun-17 18:33N 48°14' W 123°31'9 9.3
2015-Jun-17 17:33N 48°13' W 123°45'9 9.0
2015-Jun-17 16:34N 48°14' W 123°58'1111.3
2015-Jun-17 15:33N 48°19' W 124°14'1211.9
2015-Jun-17 14:34N 48°24' W 124°30'1212.0
2015-Jun-17 13:34N 48°29' W 124°47'1313.3
2015-Jun-17 12:33N 48°29' W 125°07'1514.4
2015-Jun-17 11:32N 48°24' W 125°28'11 5.3
2015-Jun-17 09:27N 48°20' W 125°44'2 1.9
2015-Jun-17 08:33N 48°22' W 125°44'2 2.0
2015-Jun-17 07:33N 48°24' W 125°44'2 2.2
2015-Jun-17 06:34N 48°26' W 125°43'3 2.5
2015-Jun-17 05:34N 48°29' W 125°42'2 2.5
2015-Jun-17 04:34N 48°31' W 125°42'2 2.2
2015-Jun-17 03:34N 48°33' W 125°42'2 2.1
2015-Jun-17 02:34N 48°35' W 125°42'2 2.1
2015-Jun-17 01:34N 48°38' W 125°42'2 2.0
2015-Jun-17 00:33N 48°39' W 125°43'2 1.5
2015-Jun-16 23:34N 48°40' W 125°45'1 1.4
2015-Jun-16 22:34N 48°40' W 125°47'3 3.3
2015-Jun-16 21:34N 48°38' W 125°43'1312.9
2015-Jun-16 20:34N 48°31' W 125°27'1313.2
2015-Jun-16 19:34N 48°22' W 125°13'8 8.5
2015-Jun-16 18:33N 48°16' W 125°03'1 1.3
2015-Jun-16 17:33N 48°17' W 125°05'1 1.1
2015-Jun-16 16:33N 48°17' W 125°06'1 1.0
2015-Jun-16 15:34N 48°17' W 125°08'1 1.0
2015-Jun-16 14:33N 48°17' W 125°09'1 1.1
2015-Jun-16 13:33N 48°17' W 125°11'1 1.1
2015-Jun-16 12:33N 48°18' W 125°13'1 1.2
2015-Jun-16 11:33N 48°18' W 125°15'1 1.3
2015-Jun-16 10:33N 48°19' W 125°16'1 1.4
2015-Jun-16 09:33N 48°19' W 125°18'2 1.6
2015-Jun-16 08:34N 48°20' W 125°20'2 1.8
2015-Jun-16 07:33N 48°21' W 125°23'2 1.9
2015-Jun-16 06:33N 48°22' W 125°25'2 1.9
2015-Jun-16 05:34N 48°23' W 125°27'2 2.1
2015-Jun-16 04:33N 48°25' W 125°29'2 2.1
2015-Jun-16 03:33N 48°27' W 125°31'2 2.5
2015-Jun-16 02:33N 48°29' W 125°33'3 2.6
2015-Jun-16 01:32N 48°31' W 125°35'2 2.5
2015-Jun-16 00:33N 48°33' W 125°37'3 2.5
2015-Jun-15 23:33N 48°35' W 125°39'2 2.4
2015-Jun-15 22:33N 48°37' W 125°40'8 7.9
2015-Jun-15 21:33N 48°35' W 125°29'1212.1
2015-Jun-15 20:34N 48°32' W 125°11'2 1.8
2015-Jun-15 19:32N 48°31' W 125°09'1 1.5
2015-Jun-15 18:33N 48°31' W 125°11'1 1.2
2015-Jun-15 17:34N 48°31' W 125°13'1 1.0
2015-Jun-15 16:33N 48°30' W 125°14'1 1.2
2015-Jun-15 15:33N 48°29' W 125°14'1 0.7
2015-Jun-15 14:33N 48°28' W 125°13'0 0.4
2015-Jun-15 13:34N 48°28' W 125°13'1 0.5
2015-Jun-15 12:33N 48°28' W 125°14'1 1.5
2015-Jun-15 11:33N 48°27' W 125°16'2 1.7
2015-Jun-15 10:33N 48°27' W 125°18'2 1.6
2015-Jun-15 09:34N 48°27' W 125°21'2 1.7
2015-Jun-15 08:33N 48°26' W 125°23'2 1.8
2015-Jun-15 07:33N 48°26' W 125°26'2 1.5
2015-Jun-15 06:33N 48°26' W 125°28'2 1.5
2015-Jun-15 05:32N 48°27' W 125°30'2 1.6
2015-Jun-15 04:33N 48°28' W 125°32'2 1.6
2015-Jun-15 03:34N 48°29' W 125°34'2 1.6
2015-Jun-15 02:33N 48°30' W 125°36'2 1.7
2015-Jun-15 01:34N 48°31' W 125°38'2 1.7
2015-Jun-15 00:33N 48°32' W 125°41'2 1.8
2015-Jun-14 23:34N 48°33' W 125°43'5 5.4
2015-Jun-14 22:33N 48°33' W 125°35'1312.6
2015-Jun-14 21:34N 48°32' W 125°16'1312.9
2015-Jun-14 20:34N 48°31' W 124°56'1313.3
2015-Jun-14 19:33N 48°29' W 124°36'1713.3
2015-Jun-14 18:17N 48°22' W 124°13'1114.5
2015-Jun-14 17:32N 48°18' W 123°58'1615.8
2015-Jun-14 16:34N 48°15' W 123°35'1211.9
2015-Jun-14 15:33N 48°09' W 123°20'1615.7
2015-Jun-14 14:33N 48°12' W 122°57'1615.8
2015-Jun-14 13:33N 48°03' W 122°38'1615.6
2015-Jun-14 12:33N 47°49' W 122°27'1414.5
2015-Jun-14 11:33N 47°35' W 122°26'1313.3
2015-Jun-14 10:33N 47°22' W 122°23'6 5.9
2015-Jun-14 09:33N 47°16' W 122°23'0 0.0
2015-Jun-13 06:29N 47°16' W 122°23'3 3.5
2015-Jun-13 05:33N 47°17' W 122°27'1110.9
2015-Jun-13 04:33N 47°28' W 122°25'1413.9
2015-Jun-13 03:33N 47°42' W 122°28'1413.6
2015-Jun-13 02:33N 47°55' W 122°30'1212.4
2015-Jun-13 01:33N 48°06' W 122°40'1211.6
2015-Jun-13 00:33N 48°11' W 122°55'1313.3
2015-Jun-12 23:33N 48°11' W 123°15'1111.3
2015-Jun-12 22:33N 48°13' W 123°32'1413.8
2015-Jun-12 21:33N 48°13' W 123°53'1514.1
2015-Jun-12 20:32N 48°19' W 124°13'3313.9
2015-Jun-12 18:10N 48°28' W 125°00'913.4
2015-Jun-12 17:28N 48°19' W 125°06'7111.3
2015-Jun-12 11:13N 47°09' W 125°03'811.8
2015-Jun-12 10:30N 47°01' W 124°57'1212.3
2015-Jun-12 09:33N 46°51' W 124°50'1212.4
2015-Jun-12 08:33N 46°40' W 124°42'1312.6
2015-Jun-12 07:33N 46°29' W 124°33'1312.7
2015-Jun-12 06:33N 46°19' W 124°20'1111.0
2015-Jun-12 05:33N 46°14' W 124°06'1110.8
2015-Jun-12 04:33N 46°12' W 123°51'9 9.3
2015-Jun-12 03:33N 46°16' W 123°39'10 9.7
2015-Jun-12 02:33N 46°13' W 123°25'8 8.4
2015-Jun-12 01:33N 46°10' W 123°14'1211.9
2015-Jun-12 00:33N 46°06' W 122°58'1110.7
2015-Jun-11 23:33N 45°58' W 122°49'1312.5
2015-Jun-11 22:33N 45°45' W 122°46'7 7.1
2015-Jun-11 21:33N 45°38' W 122°45'0 0.5
2015-Jun-11 20:28N 45°38' W 122°44'0 0.0
2015-Jun-11 19:26N 45°38' W 122°44'0 0.0
2015-Jun-11 18:20N 45°38' W 122°44'0 0.0
2015-Jun-11 17:23N 45°38' W 122°44'0 0.0
2015-Jun-11 16:28N 45°38' W 122°44'0 0.0
2015-Jun-11 15:29N 45°38' W 122°44'0 0.0
2015-Jun-11 14:32N 45°38' W 122°44'0 0.0
2015-Jun-11 13:32N 45°38' W 122°44'0 0.0
2015-Jun-11 12:26N 45°38' W 122°44'0 0.0
2015-Jun-11 11:32N 45°38' W 122°44'0 0.0
2015-Jun-11 10:32N 45°38' W 122°44'0 0.0
2015-Jun-11 09:20N 45°38' W 122°44'0 0.0
2015-Jun-11 08:32N 45°38' W 122°44'0 0.0
2015-Jun-11 07:26N 45°38' W 122°44'0 0.0
2015-Jun-11 06:32N 45°38' W 122°44'0 0.0
2015-Jun-11 05:32N 45°38' W 122°44'0 0.0
2015-Jun-11 04:32N 45°38' W 122°44'0 0.0
2015-Jun-11 03:26N 45°38' W 122°44'0 0.0
2015-Jun-11 02:17N 45°38' W 122°44'0 0.0
2015-Jun-11 01:23N 45°38' W 122°44'1 0.8
2015-Jun-11 00:33N 45°39' W 122°45'10 9.8
2015-Jun-10 23:33N 45°48' W 122°47'1010.6
2015-Jun-10 22:33N 45°59' W 122°50'9 9.2
2015-Jun-10 21:33N 46°06' W 122°57'1110.6
2015-Jun-10 20:33N 46°11' W 123°11'10 9.7
2015-Jun-10 19:33N 46°10' W 123°25'8 8.4
2015-Jun-10 18:33N 46°15' W 123°35'1110.8
2015-Jun-10 17:34N 46°12' W 123°49'9 9.4
2015-Jun-10 16:34N 46°15' W 124°02'1111.3
2015-Jun-10 15:33N 46°11' W 124°17'9 9.3
2015-Jun-10 14:33N 46°12' W 124°30'1413.9
2015-Jun-10 13:33N 46°13' W 124°50'1413.9
2015-Jun-10 12:33N 46°15' W 125°10'1313.4
2015-Jun-10 11:33N 46°16' W 125°29'1313.3
2015-Jun-10 10:33N 46°18' W 125°49'1413.2
2015-Jun-10 09:30N 46°19' W 126°09'1213.2
2015-Jun-10 08:33N 46°20' W 126°27'1412.9
2015-Jun-10 07:29N 46°22' W 126°46'1412.8
2015-Jun-10 06:26N 46°23' W 127°06'1212.9
2015-Jun-10 05:30N 46°24' W 127°23'1413.1
2015-Jun-10 04:25N 46°26' W 127°44'1113.1
2015-Jun-10 03:33N 46°27' W 127°60'1313.4
2015-Jun-10 02:33N 46°28' W 128°19'1313.2
2015-Jun-10 01:33N 46°30' W 128°38'1313.1
2015-Jun-10 00:33N 46°31' W 128°57'1312.8
2015-Jun-09 23:33N 46°34' W 129°15'10 9.4
2015-Jun-09 22:30N 46°38' W 129°29'1313.6
2015-Jun-09 21:32N 46°44' W 129°46'1413.4
2015-Jun-09 20:29N 46°50' W 130°04'1213.4
2015-Jun-09 19:33N 46°55' W 130°21'1313.5
2015-Jun-09 18:34N 47°01' W 130°39'  

Dump ship's entire track history